METAR Data
IDs: Format: Raw Decoded Include TAF

Data at: 0141 UTC 20 Jan 2022

KMQJ 200135Z AUTO 32012KT 10SM SCT025 M05/M09 A3021 RMK AO1